CPX670 Details

Departure: Miami International Airport (KMIA)
Arrival: Savannah/Hilton Head International Airport (KSAV) at N/A
Route: PIONN V437 MLB V3 OMN V437 KELER
Notes:


Current Weather Information
KMIA 251053Z 00000KT 10SM FEW025 SCT250 27/24 A2991 RMK AO2 SLP129 CB DSNT SW T02670244
KSAV 251053Z 02009KT 9SM OVC006 22/22 A3001 RMK AO2 SLP160 T02220217